Terminal Aerodrome Forecast
Issued by NWS

Home | Current Version | Previous Version | Text Only | Print | Product List | Glossary On
Versions: 1 2 3 4 5 6 7 8 9 10 11 12 13 14 15
691
FTUS43 KILX 111740
TAFBMI
TAF
KBMI 111740Z 1118/1218 VRB05KT P6SM SCT250
     FM120100 VRB04KT P6SM BKN080
     FM120300 VRB03KT 6SM -SN OVC035
     FM120500 20007KT 4SM -SN BR OVC015
     FM121100 28009KT P6SM OVC015
     FM121500 30013G18KT P6SM BKN020=

USA.gov is the U.S. government's official web portal to all federal, state and local government web resources and services.